sensor_id;sensor_type;location;lat;lon;timestamp;noise_LAeq;noise_LA_min;noise_LA_max;noise_LA01;noise_LA95
67324;Laerm;57667;51.438;5.968;2023-07-13T00:00:03;38.24;37.03;39.24;;
67324;Laerm;57667;51.438;5.968;2023-07-13T00:00:18;38.29;37.12;40.07;;
67324;Laerm;57667;51.438;5.968;2023-07-13T00:00:28;38.17;37.14;39.43;;
67324;Laerm;57667;51.438;5.968;2023-07-13T00:00:38;38.19;37.12;39.75;;
67324;Laerm;57667;51.438;5.968;2023-07-13T00:00:49;38.22;36.96;40.67;;
67324;Laerm;57667;51.438;5.968;2023-07-13T00:01:00;38.18;36.65;39.80;;
67324;Laerm;57667;51.438;5.968;2023-07-13T00:01:10;38.19;36.94;39.41;;
67324;Laerm;57667;51.438;5.968;2023-07-13T00:01:21;38.27;37.23;39.86;;
67324;Laerm;57667;51.438;5.968;2023-07-13T00:01:32;38.29;36.89;39.24;;
67324;Laerm;57667;51.438;5.968;2023-07-13T00:01:42;38.25;37.10;39.52;;
67324;Laerm;57667;51.438;5.968;2023-07-13T00:01:53;38.26;36.95;39.15;;
67324;Laerm;57667;51.438;5.968;2023-07-13T00:02:03;38.33;37.08;47.58;;
67324;Laerm;57667;51.438;5.968;2023-07-13T00:02:14;38.18;37.27;39.65;;
67324;Laerm;57667;51.438;5.968;2023-07-13T00:02:24;38.20;36.81;40.43;;
67324;Laerm;57667;51.438;5.968;2023-07-13T00:02:36;38.27;37.16;39.40;;
67324;Laerm;57667;51.438;5.968;2023-07-13T00:02:47;38.25;37.04;39.40;;
67324;Laerm;57667;51.438;5.968;2023-07-13T00:02:57;38.31;37.20;39.95;;
67324;Laerm;57667;51.438;5.968;2023-07-13T00:03:08;38.28;36.97;39.74;;
67324;Laerm;57667;51.438;5.968;2023-07-13T00:03:18;38.32;37.06;39.49;;
67324;Laerm;57667;51.438;5.968;2023-07-13T00:03:28;38.21;37.03;39.57;;
67324;Laerm;57667;51.438;5.968;2023-07-13T00:03:45;38.28;37.31;41.82;;
67324;Laerm;57667;51.438;5.968;2023-07-13T00:03:56;38.28;37.10;39.91;;
67324;Laerm;57667;51.438;5.968;2023-07-13T00:04:06;38.21;37.03;39.44;;
67324;Laerm;57667;51.438;5.968;2023-07-13T00:04:20;38.64;36.98;49.96;;
67324;Laerm;57667;51.438;5.968;2023-07-13T00:04:31;38.34;37.27;39.99;;
67324;Laerm;57667;51.438;5.968;2023-07-13T00:04:41;38.32;37.17;39.47;;
67324;Laerm;57667;51.438;5.968;2023-07-13T00:04:52;38.32;37.29;39.68;;
67324;Laerm;57667;51.438;5.968;2023-07-13T00:05:02;38.28;37.16;39.39;;
67324;Laerm;57667;51.438;5.968;2023-07-13T00:05:13;38.26;37.30;39.43;;
67324;Laerm;57667;51.438;5.968;2023-07-13T00:05:23;38.24;37.23;39.39;;
67324;Laerm;57667;51.438;5.968;2023-07-13T00:05:33;38.26;37.14;39.63;;
67324;Laerm;57667;51.438;5.968;2023-07-13T00:05:44;38.28;37.26;39.48;;
67324;Laerm;57667;51.438;5.968;2023-07-13T00:05:58;38.28;36.96;39.32;;
67324;Laerm;57667;51.438;5.968;2023-07-13T00:06:08;38.29;37.06;39.49;;
67324;Laerm;57667;51.438;5.968;2023-07-13T00:06:19;38.24;36.95;39.27;;
67324;Laerm;57667;51.438;5.968;2023-07-13T00:06:30;38.24;36.97;39.64;;
67324;Laerm;57667;51.438;5.968;2023-07-13T00:06:43;38.31;36.97;40.00;;
67324;Laerm;57667;51.438;5.968;2023-07-13T00:06:54;38.30;37.14;39.75;;
67324;Laerm;57667;51.438;5.968;2023-07-13T00:07:05;38.26;36.86;39.22;;
67324;Laerm;57667;51.438;5.968;2023-07-13T00:07:15;38.28;36.91;39.39;;
67324;Laerm;57667;51.438;5.968;2023-07-13T00:07:26;38.32;37.06;40.19;;
67324;Laerm;57667;51.438;5.968;2023-07-13T00:07:36;38.31;37.00;39.79;;
67324;Laerm;57667;51.438;5.968;2023-07-13T00:07:47;38.35;37.36;39.52;;
67324;Laerm;57667;51.438;5.968;2023-07-13T00:07:58;38.34;37.34;39.55;;
67324;Laerm;57667;51.438;5.968;2023-07-13T00:08:09;38.32;37.06;40.20;;
67324;Laerm;57667;51.438;5.968;2023-07-13T00:08:21;38.45;37.00;42.92;;
67324;Laerm;57667;51.438;5.968;2023-07-13T00:08:33;38.35;37.02;39.44;;
67324;Laerm;57667;51.438;5.968;2023-07-13T00:08:43;38.41;37.28;39.64;;
67324;Laerm;57667;51.438;5.968;2023-07-13T00:08:54;38.43;37.45;39.47;;
67324;Laerm;57667;51.438;5.968;2023-07-13T00:09:04;38.51;36.91;39.62;;
67324;Laerm;57667;51.438;5.968;2023-07-13T00:09:15;38.70;37.41;44.65;;
67324;Laerm;57667;51.438;5.968;2023-07-13T00:09:26;38.98;37.33;40.85;;
67324;Laerm;57667;51.438;5.968;2023-07-13T00:09:37;43.83;38.19;49.84;;
67324;Laerm;57667;51.438;5.968;2023-07-13T00:09:48;50.67;39.17;56.09;;
67324;Laerm;57667;51.438;5.968;2023-07-13T00:09:58;39.02;37.63;40.81;;
67324;Laerm;57667;51.438;5.968;2023-07-13T00:10:09;38.56;37.45;39.64;;
67324;Laerm;57667;51.438;5.968;2023-07-13T00:10:20;38.43;36.87;40.39;;
67324;Laerm;57667;51.438;5.968;2023-07-13T00:10:30;38.37;36.94;40.08;;
67324;Laerm;57667;51.438;5.968;2023-07-13T00:10:41;38.43;37.21;41.60;;
67324;Laerm;57667;51.438;5.968;2023-07-13T00:10:52;38.36;37.21;43.60;;
67324;Laerm;57667;51.438;5.968;2023-07-13T00:11:04;38.28;36.66;40.82;;
67324;Laerm;57667;51.438;5.968;2023-07-13T00:11:15;38.31;36.91;39.32;;
67324;Laerm;57667;51.438;5.968;2023-07-13T00:11:26;38.31;37.25;39.17;;
67324;Laerm;57667;51.438;5.968;2023-07-13T00:11:37;38.43;37.34;39.68;;
67324;Laerm;57667;51.438;5.968;2023-07-13T00:11:50;38.67;36.97;41.36;;
67324;Laerm;57667;51.438;5.968;2023-07-13T00:12:00;38.41;37.14;39.43;;
67324;Laerm;57667;51.438;5.968;2023-07-13T00:12:24;38.64;37.41;39.89;;
67324;Laerm;57667;51.438;5.968;2023-07-13T00:12:36;38.99;37.47;41.61;;
67324;Laerm;57667;51.438;5.968;2023-07-13T00:12:46;39.69;38.05;42.21;;
67324;Laerm;57667;51.438;5.968;2023-07-13T00:12:57;39.74;37.92;42.91;;
67324;Laerm;57667;51.438;5.968;2023-07-13T00:13:07;38.88;37.59;40.65;;
67324;Laerm;57667;51.438;5.968;2023-07-13T00:13:18;38.74;37.12;40.24;;
67324;Laerm;57667;51.438;5.968;2023-07-13T00:13:29;38.62;37.50;40.12;;
67324;Laerm;57667;51.438;5.968;2023-07-13T00:13:40;38.63;37.47;41.33;;
67324;Laerm;57667;51.438;5.968;2023-07-13T00:13:51;38.54;37.12;39.90;;
67324;Laerm;57667;51.438;5.968;2023-07-13T00:14:01;38.47;37.46;39.59;;
67324;Laerm;57667;51.438;5.968;2023-07-13T00:14:13;38.68;37.19;40.58;;
67324;Laerm;57667;51.438;5.968;2023-07-13T00:14:25;38.73;37.32;40.98;;
67324;Laerm;57667;51.438;5.968;2023-07-13T00:14:36;38.42;37.38;39.66;;
67324;Laerm;57667;51.438;5.968;2023-07-13T00:14:46;38.33;37.22;39.94;;
67324;Laerm;57667;51.438;5.968;2023-07-13T00:15:00;38.41;37.35;39.47;;
67324;Laerm;57667;51.438;5.968;2023-07-13T00:15:12;38.79;37.39;41.88;;
67324;Laerm;57667;51.438;5.968;2023-07-13T00:15:24;38.94;37.53;40.89;;
67324;Laerm;57667;51.438;5.968;2023-07-13T00:15:35;38.71;37.59;39.93;;
67324;Laerm;57667;51.438;5.968;2023-07-13T00:15:45;38.52;37.42;40.94;;
67324;Laerm;57667;51.438;5.968;2023-07-13T00:15:57;38.43;37.38;41.04;;
67324;Laerm;57667;51.438;5.968;2023-07-13T00:16:08;38.51;37.42;42.20;;
67324;Laerm;57667;51.438;5.968;2023-07-13T00:16:19;38.47;37.34;40.45;;
67324;Laerm;57667;51.438;5.968;2023-07-13T00:16:29;38.41;37.21;39.58;;
67324;Laerm;57667;51.438;5.968;2023-07-13T00:16:40;38.45;37.36;39.46;;
67324;Laerm;57667;51.438;5.968;2023-07-13T00:16:53;38.47;37.23;39.91;;
67324;Laerm;57667;51.438;5.968;2023-07-13T00:17:04;38.51;37.50;39.75;;
67324;Laerm;57667;51.438;5.968;2023-07-13T00:17:14;38.54;37.52;39.53;;
67324;Laerm;57667;51.438;5.968;2023-07-13T00:17:25;38.65;37.57;40.49;;
67324;Laerm;57667;51.438;5.968;2023-07-13T00:17:36;38.70;37.31;40.72;;
67324;Laerm;57667;51.438;5.968;2023-07-13T00:17:48;38.81;37.47;42.28;;
67324;Laerm;57667;51.438;5.968;2023-07-13T00:17:59;38.68;37.34;40.73;;
67324;Laerm;57667;51.438;5.968;2023-07-13T00:18:11;38.45;37.15;41.57;;
67324;Laerm;57667;51.438;5.968;2023-07-13T00:18:21;38.41;37.30;40.11;;
67324;Laerm;57667;51.438;5.968;2023-07-13T00:18:31;38.57;37.02;39.71;;
67324;Laerm;57667;51.438;5.968;2023-07-13T00:18:42;38.72;37.45;41.71;;
67324;Laerm;57667;51.438;5.968;2023-07-13T00:18:52;38.79;37.60;41.13;;
67324;Laerm;57667;51.438;5.968;2023-07-13T00:19:03;38.76;37.68;40.01;;
67324;Laerm;57667;51.438;5.968;2023-07-13T00:19:14;38.64;37.43;39.81;;
67324;Laerm;57667;51.438;5.968;2023-07-13T00:19:24;38.96;37.63;41.87;;
67324;Laerm;57667;51.438;5.968;2023-07-13T00:19:35;39.47;38.29;43.64;;
67324;Laerm;57667;51.438;5.968;2023-07-13T00:19:46;61.30;38.66;76.31;;
67324;Laerm;57667;51.438;5.968;2023-07-13T00:19:56;72.00;68.47;75.89;;
67324;Laerm;57667;51.438;5.968;2023-07-13T00:20:08;74.07;68.86;78.74;;
67324;Laerm;57667;51.438;5.968;2023-07-13T00:20:19;65.03;47.72;73.72;;
67324;Laerm;57667;51.438;5.968;2023-07-13T00:20:32;45.26;39.99;52.70;;
67324;Laerm;57667;51.438;5.968;2023-07-13T00:20:43;39.55;37.84;41.84;;
67324;Laerm;57667;51.438;5.968;2023-07-13T00:20:54;38.82;37.44;40.16;;
67324;Laerm;57667;51.438;5.968;2023-07-13T00:21:04;38.67;37.43;39.89;;
67324;Laerm;57667;51.438;5.968;2023-07-13T00:21:17;38.51;37.12;39.61;;
67324;Laerm;57667;51.438;5.968;2023-07-13T00:21:27;38.80;37.35;43.68;;
67324;Laerm;57667;51.438;5.968;2023-07-13T00:21:38;38.66;36.97;39.90;;
67324;Laerm;57667;51.438;5.968;2023-07-13T00:21:49;38.46;37.47;40.00;;
67324;Laerm;57667;51.438;5.968;2023-07-13T00:21:59;38.50;37.49;39.65;;
67324;Laerm;57667;51.438;5.968;2023-07-13T00:22:09;38.53;37.35;39.76;;
67324;Laerm;57667;51.438;5.968;2023-07-13T00:22:20;38.45;37.41;39.75;;
67324;Laerm;57667;51.438;5.968;2023-07-13T00:22:30;38.43;37.24;39.54;;
67324;Laerm;57667;51.438;5.968;2023-07-13T00:22:40;38.41;37.16;39.78;;
67324;Laerm;57667;51.438;5.968;2023-07-13T00:22:51;38.46;37.32;39.69;;
67324;Laerm;57667;51.438;5.968;2023-07-13T00:23:05;38.38;37.33;39.50;;
67324;Laerm;57667;51.438;5.968;2023-07-13T00:23:15;38.35;37.22;39.28;;
67324;Laerm;57667;51.438;5.968;2023-07-13T00:23:27;38.44;37.39;39.77;;
67324;Laerm;57667;51.438;5.968;2023-07-13T00:23:40;38.48;37.28;39.61;;
67324;Laerm;57667;51.438;5.968;2023-07-13T00:23:50;38.45;36.84;39.38;;
67324;Laerm;57667;51.438;5.968;2023-07-13T00:24:01;38.52;37.35;40.07;;
67324;Laerm;57667;51.438;5.968;2023-07-13T00:24:13;38.62;37.46;40.61;;
67324;Laerm;57667;51.438;5.968;2023-07-13T00:24:23;38.44;37.06;39.50;;
67324;Laerm;57667;51.438;5.968;2023-07-13T00:24:34;38.34;37.24;39.24;;
67324;Laerm;57667;51.438;5.968;2023-07-13T00:24:46;38.49;37.30;39.89;;
67324;Laerm;57667;51.438;5.968;2023-07-13T00:24:56;38.59;37.58;39.63;;
67324;Laerm;57667;51.438;5.968;2023-07-13T00:25:06;38.61;37.40;40.65;;
67324;Laerm;57667;51.438;5.968;2023-07-13T00:25:18;38.56;37.28;40.92;;
67324;Laerm;57667;51.438;5.968;2023-07-13T00:25:29;38.40;37.34;39.82;;
67324;Laerm;57667;51.438;5.968;2023-07-13T00:25:39;38.46;37.47;39.68;;
67324;Laerm;57667;51.438;5.968;2023-07-13T00:25:49;38.49;37.23;39.52;;
67324;Laerm;57667;51.438;5.968;2023-07-13T00:26:02;38.42;37.28;40.00;;
67324;Laerm;57667;51.438;5.968;2023-07-13T00:26:13;38.51;37.42;40.01;;
67324;Laerm;57667;51.438;5.968;2023-07-13T00:26:23;38.53;37.19;40.03;;
67324;Laerm;57667;51.438;5.968;2023-07-13T00:26:33;38.56;37.42;39.65;;
67324;Laerm;57667;51.438;5.968;2023-07-13T00:26:44;38.45;37.24;39.74;;
67324;Laerm;57667;51.438;5.968;2023-07-13T00:26:55;38.47;37.29;39.59;;
67324;Laerm;57667;51.438;5.968;2023-07-13T00:27:06;38.49;36.98;39.78;;
67324;Laerm;57667;51.438;5.968;2023-07-13T00:27:16;38.47;37.39;39.55;;
67324;Laerm;57667;51.438;5.968;2023-07-13T00:27:27;38.42;37.59;39.50;;
67324;Laerm;57667;51.438;5.968;2023-07-13T00:27:41;38.59;37.41;40.07;;
67324;Laerm;57667;51.438;5.968;2023-07-13T00:27:51;38.48;37.38;39.46;;
67324;Laerm;57667;51.438;5.968;2023-07-13T00:28:01;38.43;37.20;39.50;;
67324;Laerm;57667;51.438;5.968;2023-07-13T00:28:12;38.60;37.17;41.92;;
67324;Laerm;57667;51.438;5.968;2023-07-13T00:28:22;38.61;37.55;39.92;;
67324;Laerm;57667;51.438;5.968;2023-07-13T00:28:32;38.50;37.29;39.87;;
67324;Laerm;57667;51.438;5.968;2023-07-13T00:28:44;38.58;37.46;40.07;;
67324;Laerm;57667;51.438;5.968;2023-07-13T00:28:54;38.65;37.45;39.83;;
67324;Laerm;57667;51.438;5.968;2023-07-13T00:29:04;38.78;37.40;45.41;;
67324;Laerm;57667;51.438;5.968;2023-07-13T00:29:18;38.69;37.34;40.03;;
67324;Laerm;57667;51.438;5.968;2023-07-13T00:29:28;38.52;37.51;39.78;;
67324;Laerm;57667;51.438;5.968;2023-07-13T00:29:39;38.79;37.41;40.90;;
67324;Laerm;57667;51.438;5.968;2023-07-13T00:29:50;38.90;37.51;40.19;;
67324;Laerm;57667;51.438;5.968;2023-07-13T00:30:00;39.80;38.09;41.57;;
67324;Laerm;57667;51.438;5.968;2023-07-13T00:30:11;39.29;37.56;40.59;;
67324;Laerm;57667;51.438;5.968;2023-07-13T00:30:21;38.99;37.67;40.13;;
67324;Laerm;57667;51.438;5.968;2023-07-13T00:30:32;38.68;37.54;41.11;;
67324;Laerm;57667;51.438;5.968;2023-07-13T00:30:42;38.62;37.41;39.67;;
67324;Laerm;57667;51.438;5.968;2023-07-13T00:30:53;38.51;37.50;39.63;;
67324;Laerm;57667;51.438;5.968;2023-07-13T00:31:04;38.71;37.21;42.68;;
67324;Laerm;57667;51.438;5.968;2023-07-13T00:31:14;38.62;37.50;39.64;;
67324;Laerm;57667;51.438;5.968;2023-07-13T00:31:25;38.63;37.38;39.80;;
67324;Laerm;57667;51.438;5.968;2023-07-13T00:31:36;38.51;37.44;39.49;;
67324;Laerm;57667;51.438;5.968;2023-07-13T00:31:46;39.17;37.41;44.39;;
67324;Laerm;57667;51.438;5.968;2023-07-13T00:31:56;39.15;37.72;40.45;;
67324;Laerm;57667;51.438;5.968;2023-07-13T00:32:08;38.74;37.33;39.74;;
67324;Laerm;57667;51.438;5.968;2023-07-13T00:32:19;39.33;37.61;40.55;;
67324;Laerm;57667;51.438;5.968;2023-07-13T00:32:29;39.13;37.29;40.24;;
67324;Laerm;57667;51.438;5.968;2023-07-13T00:32:40;38.58;37.55;39.62;;
67324;Laerm;57667;51.438;5.968;2023-07-13T00:32:51;38.58;37.37;39.88;;
67324;Laerm;57667;51.438;5.968;2023-07-13T00:33:01;38.56;37.25;39.56;;
67324;Laerm;57667;51.438;5.968;2023-07-13T00:33:12;38.84;37.37;41.45;;
67324;Laerm;57667;51.438;5.968;2023-07-13T00:33:22;39.50;37.84;41.57;;
67324;Laerm;57667;51.438;5.968;2023-07-13T00:33:33;39.17;37.39;40.97;;
67324;Laerm;57667;51.438;5.968;2023-07-13T00:33:43;39.28;37.86;40.95;;
67324;Laerm;57667;51.438;5.968;2023-07-13T00:33:53;39.25;37.92;40.93;;
67324;Laerm;57667;51.438;5.968;2023-07-13T00:34:04;38.90;37.46;40.22;;
67324;Laerm;57667;51.438;5.968;2023-07-13T00:34:14;38.93;37.78;40.43;;
67324;Laerm;57667;51.438;5.968;2023-07-13T00:34:25;38.87;37.47;40.16;;
67324;Laerm;57667;51.438;5.968;2023-07-13T00:34:35;38.65;37.53;39.93;;
67324;Laerm;57667;51.438;5.968;2023-07-13T00:34:45;38.88;37.64;40.08;;
67324;Laerm;57667;51.438;5.968;2023-07-13T00:34:55;38.92;37.74;40.56;;
67324;Laerm;57667;51.438;5.968;2023-07-13T00:35:07;38.80;37.56;40.01;;
67324;Laerm;57667;51.438;5.968;2023-07-13T00:35:18;38.64;37.37;40.02;;
67324;Laerm;57667;51.438;5.968;2023-07-13T00:35:30;38.75;37.65;40.41;;
67324;Laerm;57667;51.438;5.968;2023-07-13T00:35:40;38.80;37.23;40.36;;
67324;Laerm;57667;51.438;5.968;2023-07-13T00:35:54;39.06;37.14;41.55;;
67324;Laerm;57667;51.438;5.968;2023-07-13T00:36:04;38.90;37.62;40.45;;
67324;Laerm;57667;51.438;5.968;2023-07-13T00:36:15;38.69;37.17;39.96;;
67324;Laerm;57667;51.438;5.968;2023-07-13T00:36:25;39.35;37.76;43.08;;
67324;Laerm;57667;51.438;5.968;2023-07-13T00:36:36;39.11;37.68;40.49;;
67324;Laerm;57667;51.438;5.968;2023-07-13T00:36:46;38.83;37.59;40.67;;
67324;Laerm;57667;51.438;5.968;2023-07-13T00:36:57;38.87;37.66;41.66;;
67324;Laerm;57667;51.438;5.968;2023-07-13T00:37:07;38.68;37.37;40.95;;
67324;Laerm;57667;51.438;5.968;2023-07-13T00:37:17;38.61;37.27;40.19;;
67324;Laerm;57667;51.438;5.968;2023-07-13T00:37:28;38.52;37.40;39.60;;
67324;Laerm;57667;51.438;5.968;2023-07-13T00:37:38;38.49;37.32;39.63;;
67324;Laerm;57667;51.438;5.968;2023-07-13T00:37:48;38.65;37.32;40.10;;
67324;Laerm;57667;51.438;5.968;2023-07-13T00:37:59;38.56;37.27;41.35;;
67324;Laerm;57667;51.438;5.968;2023-07-13T00:38:09;38.51;37.48;39.57;;
67324;Laerm;57667;51.438;5.968;2023-07-13T00:38:20;38.59;37.29;39.68;;
67324;Laerm;57667;51.438;5.968;2023-07-13T00:38:30;38.46;37.21;40.51;;
67324;Laerm;57667;51.438;5.968;2023-07-13T00:38:40;38.45;37.13;39.45;;
67324;Laerm;57667;51.438;5.968;2023-07-13T00:38:51;38.51;37.09;39.66;;
67324;Laerm;57667;51.438;5.968;2023-07-13T00:39:02;38.61;37.53;39.75;;
67324;Laerm;57667;51.438;5.968;2023-07-13T00:39:13;38.56;37.21;39.71;;
67324;Laerm;57667;51.438;5.968;2023-07-13T00:39:24;38.53;37.37;39.59;;
67324;Laerm;57667;51.438;5.968;2023-07-13T00:39:35;38.65;37.43;45.15;;
67324;Laerm;57667;51.438;5.968;2023-07-13T00:39:45;38.64;37.51;42.91;;
67324;Laerm;57667;51.438;5.968;2023-07-13T00:39:56;38.57;37.47;44.35;;
67324;Laerm;57667;51.438;5.968;2023-07-13T00:40:07;38.63;37.06;39.88;;
67324;Laerm;57667;51.438;5.968;2023-07-13T00:40:18;39.04;37.81;41.12;;
67324;Laerm;57667;51.438;5.968;2023-07-13T00:40:28;38.81;37.46;40.93;;
67324;Laerm;57667;51.438;5.968;2023-07-13T00:40:38;38.69;37.38;43.20;;
67324;Laerm;57667;51.438;5.968;2023-07-13T00:40:49;38.70;37.42;39.74;;
67324;Laerm;57667;51.438;5.968;2023-07-13T00:40:59;38.85;37.56;40.16;;
67324;Laerm;57667;51.438;5.968;2023-07-13T00:41:10;39.40;37.86;41.34;;
67324;Laerm;57667;51.438;5.968;2023-07-13T00:41:21;43.31;39.04;52.25;;
67324;Laerm;57667;51.438;5.968;2023-07-13T00:41:31;69.86;49.44;76.56;;
67324;Laerm;57667;51.438;5.968;2023-07-13T00:41:42;66.28;63.37;68.44;;
67324;Laerm;57667;51.438;5.968;2023-07-13T00:41:53;62.67;47.29;68.59;;
67324;Laerm;57667;51.438;5.968;2023-07-13T00:42:04;47.88;41.42;56.05;;
67324;Laerm;57667;51.438;5.968;2023-07-13T00:42:15;40.17;37.98;47.71;;
67324;Laerm;57667;51.438;5.968;2023-07-13T00:42:25;39.07;37.69;41.68;;
67324;Laerm;57667;51.438;5.968;2023-07-13T00:42:35;38.83;37.77;39.99;;
67324;Laerm;57667;51.438;5.968;2023-07-13T00:42:46;38.84;37.13;40.56;;
67324;Laerm;57667;51.438;5.968;2023-07-13T00:42:57;39.51;37.40;43.47;;
67324;Laerm;57667;51.438;5.968;2023-07-13T00:43:09;38.75;37.56;39.83;;
67324;Laerm;57667;51.438;5.968;2023-07-13T00:43:21;38.78;37.33;40.86;;
67324;Laerm;57667;51.438;5.968;2023-07-13T00:43:32;38.83;37.42;43.48;;
67324;Laerm;57667;51.438;5.968;2023-07-13T00:43:43;38.59;37.71;39.86;;
67324;Laerm;57667;51.438;5.968;2023-07-13T00:43:53;38.59;37.23;39.68;;
67324;Laerm;57667;51.438;5.968;2023-07-13T00:44:03;38.67;36.99;42.55;;
67324;Laerm;57667;51.438;5.968;2023-07-13T00:44:14;38.70;37.50;39.83;;
67324;Laerm;57667;51.438;5.968;2023-07-13T00:44:25;38.71;37.45;39.92;;
67324;Laerm;57667;51.438;5.968;2023-07-13T00:44:35;38.80;37.49;40.12;;
67324;Laerm;57667;51.438;5.968;2023-07-13T00:46:09;64.40;47.40;74.40;;
67324;Laerm;57667;51.438;5.968;2023-07-13T00:46:24;43.69;37.91;53.91;;
67324;Laerm;57667;51.438;5.968;2023-07-13T00:46:35;39.01;37.89;40.33;;
67324;Laerm;57667;51.438;5.968;2023-07-13T00:46:45;38.88;37.64;40.89;;
67324;Laerm;57667;51.438;5.968;2023-07-13T00:46:56;38.75;37.52;42.07;;
67324;Laerm;57667;51.438;5.968;2023-07-13T00:47:08;38.72;37.66;40.35;;
67324;Laerm;57667;51.438;5.968;2023-07-13T00:47:18;38.75;37.48;40.09;;
67324;Laerm;57667;51.438;5.968;2023-07-13T00:47:29;38.69;37.44;40.04;;
67324;Laerm;57667;51.438;5.968;2023-07-13T00:47:39;38.60;37.19;39.73;;
67324;Laerm;57667;51.438;5.968;2023-07-13T00:47:50;38.61;37.23;40.01;;
67324;Laerm;57667;51.438;5.968;2023-07-13T00:48:00;38.77;37.34;40.01;;
67324;Laerm;57667;51.438;5.968;2023-07-13T00:48:18;38.85;37.83;40.05;;
67324;Laerm;57667;51.438;5.968;2023-07-13T00:48:31;38.67;37.48;40.49;;
67324;Laerm;57667;51.438;5.968;2023-07-13T00:48:42;38.54;37.27;39.84;;
67324;Laerm;57667;51.438;5.968;2023-07-13T00:48:54;38.81;37.53;40.47;;
67324;Laerm;57667;51.438;5.968;2023-07-13T00:49:06;38.75;37.53;39.71;;
67324;Laerm;57667;51.438;5.968;2023-07-13T00:49:19;38.56;37.45;41.19;;
67324;Laerm;57667;51.438;5.968;2023-07-13T00:49:31;38.58;37.56;40.07;;
67324;Laerm;57667;51.438;5.968;2023-07-13T00:49:42;38.47;37.37;39.62;;
67324;Laerm;57667;51.438;5.968;2023-07-13T00:49:52;38.50;37.30;40.06;;
67324;Laerm;57667;51.438;5.968;2023-07-13T00:50:03;38.50;37.28;39.50;;
67324;Laerm;57667;51.438;5.968;2023-07-13T00:50:14;38.62;37.52;40.40;;
67324;Laerm;57667;51.438;5.968;2023-07-13T00:50:26;38.52;37.51;39.56;;
67324;Laerm;57667;51.438;5.968;2023-07-13T00:50:36;38.55;37.14;41.08;;
67324;Laerm;57667;51.438;5.968;2023-07-13T00:50:48;38.62;37.52;39.86;;
67324;Laerm;57667;51.438;5.968;2023-07-13T00:51:00;38.78;37.46;41.53;;
67324;Laerm;57667;51.438;5.968;2023-07-13T00:51:11;38.87;37.80;40.24;;
67324;Laerm;57667;51.438;5.968;2023-07-13T00:51:27;38.94;37.70;40.16;;
67324;Laerm;57667;51.438;5.968;2023-07-13T00:52:11;38.55;37.38;39.62;;
67324;Laerm;57667;51.438;5.968;2023-07-13T00:52:15;38.60;37.28;43.96;;
67324;Laerm;57667;51.438;5.968;2023-07-13T00:52:25;38.59;37.39;40.05;;
67324;Laerm;57667;51.438;5.968;2023-07-13T00:52:37;38.67;37.20;39.94;;
67324;Laerm;57667;51.438;5.968;2023-07-13T00:52:49;38.58;37.28;39.66;;
67324;Laerm;57667;51.438;5.968;2023-07-13T00:53:01;38.97;37.59;40.82;;
67324;Laerm;57667;51.438;5.968;2023-07-13T00:53:11;38.90;37.75;40.86;;
67324;Laerm;57667;51.438;5.968;2023-07-13T00:53:21;38.82;37.73;40.23;;
67324;Laerm;57667;51.438;5.968;2023-07-13T00:53:32;38.79;37.31;40.44;;
67324;Laerm;57667;51.438;5.968;2023-07-13T00:53:43;38.68;37.12;40.04;;
67324;Laerm;57667;51.438;5.968;2023-07-13T00:53:53;38.74;37.45;40.22;;
67324;Laerm;57667;51.438;5.968;2023-07-13T00:54:05;38.61;37.30;39.86;;
67324;Laerm;57667;51.438;5.968;2023-07-13T00:54:27;38.53;37.19;39.90;;
67324;Laerm;57667;51.438;5.968;2023-07-13T00:54:39;38.52;37.25;39.98;;
67324;Laerm;57667;51.438;5.968;2023-07-13T00:54:50;38.57;37.19;40.03;;
67324;Laerm;57667;51.438;5.968;2023-07-13T00:55:01;38.55;37.45;39.55;;
67324;Laerm;57667;51.438;5.968;2023-07-13T00:55:11;38.66;37.53;40.11;;
67324;Laerm;57667;51.438;5.968;2023-07-13T00:55:23;38.78;37.35;42.00;;
67324;Laerm;57667;51.438;5.968;2023-07-13T00:55:34;38.74;37.41;41.37;;
67324;Laerm;57667;51.438;5.968;2023-07-13T00:55:44;38.61;37.53;41.19;;
67324;Laerm;57667;51.438;5.968;2023-07-13T00:55:55;38.56;37.45;39.87;;
67324;Laerm;57667;51.438;5.968;2023-07-13T00:56:06;38.69;37.47;40.65;;
67324;Laerm;57667;51.438;5.968;2023-07-13T00:56:16;38.85;37.65;39.98;;
67324;Laerm;57667;51.438;5.968;2023-07-13T00:56:27;39.53;38.24;46.27;;
67324;Laerm;57667;51.438;5.968;2023-07-13T00:56:38;38.99;37.77;47.83;;
67324;Laerm;57667;51.438;5.968;2023-07-13T00:56:50;38.78;37.68;40.37;;
67324;Laerm;57667;51.438;5.968;2023-07-13T00:57:03;38.73;37.54;39.86;;
67324;Laerm;57667;51.438;5.968;2023-07-13T00:57:15;38.58;37.29;39.63;;
67324;Laerm;57667;51.438;5.968;2023-07-13T00:57:27;38.51;37.54;39.99;;
67324;Laerm;57667;51.438;5.968;2023-07-13T00:57:37;38.48;37.04;40.67;;
67324;Laerm;57667;51.438;5.968;2023-07-13T00:57:48;38.48;37.41;39.94;;
67324;Laerm;57667;51.438;5.968;2023-07-13T00:57:59;38.62;37.52;40.30;;
67324;Laerm;57667;51.438;5.968;2023-07-13T00:58:09;38.84;37.70;40.13;;
67324;Laerm;57667;51.438;5.968;2023-07-13T00:58:20;38.92;37.75;40.47;;
67324;Laerm;57667;51.438;5.968;2023-07-13T00:58:30;38.52;37.11;39.48;;
67324;Laerm;57667;51.438;5.968;2023-07-13T00:58:41;38.68;37.45;42.01;;
67324;Laerm;57667;51.438;5.968;2023-07-13T00:58:52;38.61;37.54;44.75;;
67324;Laerm;57667;51.438;5.968;2023-07-13T00:59:03;38.62;37.43;42.80;;
67324;Laerm;57667;51.438;5.968;2023-07-13T00:59:14;38.74;37.49;40.26;;
67324;Laerm;57667;51.438;5.968;2023-07-13T00:59:25;38.83;37.69;41.09;;
67324;Laerm;57667;51.438;5.968;2023-07-13T00:59:36;38.82;37.73;39.88;;
67324;Laerm;57667;51.438;5.968;2023-07-13T00:59:51;38.70;37.24;42.79;;
67324;Laerm;57667;51.438;5.968;2023-07-13T01:00:03;38.72;37.34;40.78;;
67324;Laerm;57667;51.438;5.968;2023-07-13T01:00:15;38.65;37.49;40.82;;
67324;Laerm;57667;51.438;5.968;2023-07-13T01:00:26;38.62;37.41;40.12;;
67324;Laerm;57667;51.438;5.968;2023-07-13T01:00:39;38.83;37.37;41.83;;
67324;Laerm;57667;51.438;5.968;2023-07-13T01:00:50;38.49;37.44;39.64;;
67324;Laerm;57667;51.438;5.968;2023-07-13T01:01:01;39.03;37.44;44.18;;
67324;Laerm;57667;51.438;5.968;2023-07-13T01:01:11;38.79;37.34;39.93;;
67324;Laerm;57667;51.438;5.968;2023-07-13T01:01:23;39.21;37.65;40.96;;
67324;Laerm;57667;51.438;5.968;2023-07-13T01:01:33;39.50;37.77;41.74;;
67324;Laerm;57667;51.438;5.968;2023-07-13T01:01:43;40.02;37.96;42.62;;
67324;Laerm;57667;51.438;5.968;2023-07-13T01:01:54;38.98;37.98;40.04;;
67324;Laerm;57667;51.438;5.968;2023-07-13T01:02:04;38.71;37.59;39.84;;
67324;Laerm;57667;51.438;5.968;2023-07-13T01:02:15;38.60;37.49;39.62;;
67324;Laerm;57667;51.438;5.968;2023-07-13T01:02:27;38.60;37.55;39.82;;
67324;Laerm;57667;51.438;5.968;2023-07-13T01:02:40;38.70;37.49;40.14;;
67324;Laerm;57667;51.438;5.968;2023-07-13T01:02:52;38.68;37.13;40.43;;
67324;Laerm;57667;51.438;5.968;2023-07-13T01:03:03;38.62;37.36;44.02;;
67324;Laerm;57667;51.438;5.968;2023-07-13T01:03:14;38.73;37.37;40.36;;
67324;Laerm;57667;51.438;5.968;2023-07-13T01:03:25;38.61;37.39;39.81;;
67324;Laerm;57667;51.438;5.968;2023-07-13T01:03:35;38.69;37.65;39.72;;
67324;Laerm;57667;51.438;5.968;2023-07-13T01:03:46;38.92;37.41;40.24;;